Time;durP1;ratioP1;P1;durP2;ratioP2;P2;SDS_P1;SDS_P2;PMS_P1;PMS_P2;Temp;Humidity;BMP_temperature;BMP_pressure;BME280_temperature;BME280_humidity;BME280_pressure;Samples;Min_cycle;Max_cycle;Signal;HPM_P1;HPM_P2
2022/11/01 00:04:51;;;;;;;18.80;10.10;;;22.60;70.60;;;;;;213529;1280;22461;-59
2022/11/01 00:09:55;;;;;;;16.80;9.50;;;22.60;70.90;;;;;;213335;1280;24234;-57
2022/11/01 00:14:59;;;;;;;37.00;11.50;;;22.60;70.60;;;;;;213410;1284;25551;-59
2022/11/01 00:20:06;;;;;;;15.40;9.50;;;22.60;70.40;;;;;;213303;1281;25531;-58
2022/11/01 00:25:14;;;;;;;13.90;9.80;;;22.60;70.50;;;;;;213475;1287;25599;-59
2022/11/01 00:30:17;;;;;;;14.50;10.90;;;22.60;70.50;;;;;;213563;1294;22604;-61
2022/11/01 00:35:24;;;;;;;14.00;11.00;;;22.60;70.70;;;;;;213571;1288;23935;-59
2022/11/01 00:40:27;;;;;;;15.40;10.20;;;22.60;70.20;;;;;;213629;1281;22709;-60
2022/11/01 00:45:31;;;;;;;17.60;10.70;;;22.60;70.00;;;;;;213698;1280;22501;-58
2022/11/01 00:50:35;;;;;;;13.70;9.90;;;22.60;70.10;;;;;;213707;1286;27064;-59
2022/11/01 00:55:39;;;;;;;16.80;11.10;;;22.50;69.90;;;;;;213696;1297;25463;-60
2022/11/01 01:00:43;;;;;;;14.80;10.60;;;22.50;70.00;;;;;;213564;1284;23192;-60
2022/11/01 01:05:51;;;;;;;13.90;9.70;;;22.50;69.90;;;;;;218050;1293;23886;-59
2022/11/01 01:10:55;;;;;;;12.40;9.60;;;22.50;70.00;;;;;;214887;1283;24336;-57
2022/11/01 01:15:59;;;;;;;12.30;9.40;;;22.50;70.00;;;;;;213382;1288;24407;-60
2022/11/01 01:21:04;;;;;;;13.60;9.20;;;22.40;70.00;;;;;;213485;1283;24859;-60
2022/11/01 01:26:09;;;;;;;14.40;10.30;;;22.50;70.00;;;;;;214297;1293;22561;-58
2022/11/01 01:31:13;;;;;;;15.10;10.10;;;22.50;70.00;;;;;;220442;1288;22498;-60
2022/11/01 01:36:17;;;;;;;12.00;9.90;;;22.40;70.40;;;;;;213469;1288;22883;-58
2022/11/01 01:46:43;;;;;;;12.60;9.60;;;22.40;70.20;;;;;;213272;1288;24296;-62
2022/11/01 01:51:46;;;;;;;12.40;9.60;;;22.40;70.30;;;;;;213309;1293;25549;-59
2022/11/01 01:56:50;;;;;;;11.20;8.90;;;22.30;70.20;;;;;;213408;1281;22494;-61
2022/11/01 02:01:53;;;;;;;13.50;9.80;;;22.30;70.70;;;;;;213439;1290;22490;-58
2022/11/01 02:06:58;;;;;;;13.20;10.20;;;22.30;70.80;;;;;;213460;1288;23023;-59
2022/11/01 02:12:03;;;;;;;12.20;8.80;;;22.30;70.60;;;;;;213592;1280;23891;-58
2022/11/01 02:17:29;;;;;;;12.10;9.60;;;22.30;70.60;;;;;;213788;1303;25281;-60
2022/11/01 02:22:53;;;;;;;13.40;9.50;;;22.30;70.80;;;;;;213644;1294;22477;-60
2022/11/01 02:28:08;;;;;;;13.90;9.60;;;22.30;71.10;;;;;;213564;1288;23082;-58
2022/11/01 02:33:26;;;;;;;12.40;9.10;;;22.20;70.70;;;;;;213850;1277;22712;-58
2022/11/01 02:38:38;;;;;;;11.20;8.70;;;22.20;70.70;;;;;;213647;1284;24246;-58
2022/11/01 02:44:02;;;;;;;13.20;8.50;;;22.20;70.90;;;;;;214851;1305;25293;-60
2022/11/01 02:49:10;;;;;;;13.00;9.50;;;22.20;70.80;;;;;;213509;1291;22574;-58
2022/11/01 02:54:27;;;;;;;12.40;9.30;;;22.20;71.20;;;;;;218994;1294;23134;-59
2022/11/01 02:59:42;;;;;;;11.00;8.30;;;22.20;70.80;;;;;;214523;1287;25553;-54
2022/11/01 03:04:47;;;;;;;12.00;8.70;;;22.20;70.80;;;;;;214504;1281;25530;-60
2022/11/01 03:09:50;;;;;;;10.90;8.30;;;22.20;70.80;;;;;;213711;1306;23886;-57
2022/11/01 03:15:19;;;;;;;14.70;9.10;;;22.10;70.80;;;;;;213492;1284;22876;-59
2022/11/01 03:20:49;;;;;;;12.60;9.60;;;22.10;70.80;;;;;;213557;1288;22610;-60
2022/11/01 03:26:05;;;;;;;13.00;8.90;;;22.10;70.80;;;;;;213621;1296;22475;-59
2022/11/01 03:31:31;;;;;;;10.00;8.20;;;22.10;71.20;;;;;;213538;1287;22465;-60
2022/11/01 03:36:41;;;;;;;10.70;8.60;;;22.00;71.30;;;;;;213591;1290;22549;-58
2022/11/01 03:42:01;;;;;;;10.90;8.40;;;22.00;70.90;;;;;;213531;1286;24242;-59
2022/11/01 03:47:06;;;;;;;10.90;8.50;;;22.10;71.10;;;;;;213541;1288;22602;-60
2022/11/01 03:52:14;;;;;;;12.00;9.10;;;22.00;71.40;;;;;;213534;1290;23493;-59
2022/11/01 03:57:18;;;;;;;12.00;8.30;;;22.00;71.10;;;;;;213603;1294;22714;-60
2022/11/01 04:02:22;;;;;;;9.90;8.10;;;22.00;71.10;;;;;;213671;1288;25404;-59
2022/11/01 04:07:25;;;;;;;11.50;8.30;;;22.00;71.20;;;;;;213532;1291;22626;-58
2022/11/01 04:12:29;;;;;;;11.70;8.50;;;22.00;71.20;;;;;;213550;1291;23156;-60
2022/11/01 04:22:55;;;;;;;12.50;8.90;;;21.90;71.10;;;;;;213399;1288;25664;-56
2022/11/01 04:27:59;;;;;;;11.20;8.10;;;21.90;71.20;;;;;;213288;1286;25290;-59
2022/11/01 04:33:02;;;;;;;10.30;8.20;;;21.90;71.20;;;;;;213483;1294;22852;-59
2022/11/01 04:38:09;;;;;;;11.40;8.40;;;21.90;71.10;;;;;;213401;1288;22528;-59
2022/11/01 04:43:12;;;;;;;15.10;8.00;;;21.90;71.50;;;;;;214019;1281;24285;-59
2022/11/01 04:48:16;;;;;;;9.70;7.80;;;21.90;71.10;;;;;;213341;1284;25491;-60
2022/11/01 04:53:19;;;;;;;9.80;7.70;;;21.90;71.10;;;;;;213498;1283;22620;-60
2022/11/01 04:58:23;;;;;;;10.50;7.70;;;21.90;71.60;;;;;;213471;1296;24245;-61
2022/11/01 05:03:26;;;;;;;10.90;7.70;;;21.90;71.10;;;;;;213391;1288;22480;-60
2022/11/01 05:08:30;;;;;;;10.20;7.80;;;21.90;71.50;;;;;;213592;1309;22600;-58
2022/11/01 05:13:33;;;;;;;9.20;7.70;;;21.80;71.10;;;;;;213601;1288;24205;-56
2022/11/01 05:18:39;;;;;;;8.90;7.70;;;21.80;71.10;;;;;;213695;1288;22593;-60
2022/11/01 05:23:45;;;;;;;10.70;7.10;;;21.80;71.00;;;;;;213564;1298;22689;-60
2022/11/01 05:28:49;;;;;;;10.20;7.50;;;21.80;71.00;;;;;;213659;1283;25400;-61
2022/11/01 05:33:52;;;;;;;11.00;8.10;;;21.80;71.10;;;;;;213506;1288;22475;-60
2022/11/01 05:38:57;;;;;;;9.60;7.50;;;21.80;71.10;;;;;;213519;1278;22723;-59
2022/11/01 05:44:01;;;;;;;10.70;7.70;;;21.70;70.90;;;;;;213759;1284;22947;-60
2022/11/01 05:49:04;;;;;;;9.10;7.30;;;21.70;71.40;;;;;;213524;1288;23942;-60
2022/11/01 05:54:14;;;;;;;11.40;7.70;;;21.80;71.10;;;;;;213365;1283;25602;-62
2022/11/01 05:59:19;;;;;;;10.20;7.30;;;21.70;71.00;;;;;;213758;1295;23730;-60
2022/11/01 06:04:23;;;;;;;11.80;7.80;;;21.70;71.50;;;;;;213577;1284;22493;-62
2022/11/01 06:09:31;;;;;;;10.40;7.80;;;21.70;71.20;;;;;;213495;1280;178446;-59
2022/11/01 06:14:40;;;;;;;8.60;6.80;;;21.70;71.10;;;;;;213709;1291;24275;-60
2022/11/01 06:19:45;;;;;;;9.30;7.50;;;21.70;71.10;;;;;;213716;1287;24230;-58
2022/11/01 06:24:49;;;;;;;9.10;6.70;;;21.70;71.10;;;;;;213705;1294;25078;-59
2022/11/01 06:29:56;;;;;;;9.60;7.10;;;21.70;71.10;;;;;;213556;1288;22854;-60
2022/11/01 06:35:00;;;;;;;9.00;7.20;;;21.70;70.90;;;;;;213588;1283;25147;-60
2022/11/01 06:40:05;;;;;;;8.60;6.60;;;21.60;71.50;;;;;;213758;1288;22501;-59
2022/11/01 06:45:09;;;;;;;8.50;6.60;;;21.60;71.20;;;;;;213628;1291;22736;-60
2022/11/01 06:50:12;;;;;;;8.70;6.90;;;21.60;71.10;;;;;;213616;1291;23546;-60
2022/11/01 06:55:16;;;;;;;8.30;6.90;;;21.60;71.20;;;;;;213636;1291;22620;-59
2022/11/01 07:00:23;;;;;;;9.00;7.10;;;21.60;71.50;;;;;;213597;1307;22948;-56
2022/11/01 07:05:32;;;;;;;8.80;7.10;;;21.60;71.10;;;;;;213575;1296;22488;-59
2022/11/01 07:10:44;;;;;;;8.90;6.80;;;21.60;71.50;;;;;;213519;1287;23504;-60
2022/11/01 07:15:48;;;;;;;8.80;7.10;;;21.70;71.10;;;;;;213553;1284;22870;-59
2022/11/01 07:21:00;;;;;;;8.70;6.70;;;21.70;70.90;;;;;;213393;1288;24377;-56
2022/11/01 07:26:07;;;;;;;8.80;6.60;;;21.70;71.10;;;;;;213707;1293;25383;-58
2022/11/01 07:31:11;;;;;;;11.10;6.70;;;21.60;71.00;;;;;;213696;1291;22465;-58
2022/11/01 07:36:14;;;;;;;10.70;5.70;;;21.70;70.90;;;;;;213463;1286;22548;-61
2022/11/01 07:41:18;;;;;;;10.80;6.80;;;21.60;71.50;;;;;;213799;1284;25523;-57
2022/11/01 07:46:22;;;;;;;9.60;6.50;;;21.80;71.00;;;;;;213549;1283;24225;-58
2022/11/01 07:51:27;;;;;;;9.50;5.90;;;21.80;70.90;;;;;;213660;1288;26595;-60
2022/11/01 07:56:36;;;;;;;11.60;6.50;;;21.80;70.80;;;;;;213474;1281;25720;-60
2022/11/01 08:01:40;;;;;;;9.00;6.20;;;21.70;71.00;;;;;;213494;1287;24300;-56
2022/11/01 08:06:44;;;;;;;20.80;6.40;;;21.70;71.00;;;;;;213512;1287;24019;-60
2022/11/01 08:11:55;;;;;;;9.60;6.40;;;21.70;71.00;;;;;;213386;1283;24280;-61
2022/11/01 08:17:01;;;;;;;8.70;6.40;;;21.80;70.70;;;;;;213505;1281;22513;-58
2022/11/01 08:22:05;;;;;;;13.60;6.50;;;21.90;70.50;;;;;;213490;1288;22526;-57
2022/11/01 08:27:13;;;;;;;12.00;6.50;;;22.00;70.60;;;;;;213471;1281;24246;-57
2022/11/01 08:32:20;;;;;;;15.10;6.70;;;22.00;70.60;;;;;;213392;1280;24330;-58
2022/11/01 08:37:27;;;;;;;12.10;6.70;;;22.00;70.30;;;;;;213485;1284;22611;-59
2022/11/01 08:42:31;;;;;;;14.50;7.00;;;22.00;70.60;;;;;;213482;1283;25096;-58
2022/11/01 08:47:57;;;;;;;11.70;6.70;;;22.00;70.10;;;;;;213303;1288;24794;-51
2022/11/01 08:53:09;;;;;;;16.50;6.40;;;22.00;70.30;;;;;;213198;1288;22612;-55
2022/11/01 08:58:13;;;;;;;10.10;6.50;;;22.00;69.60;;;;;;213352;1283;24168;-57
2022/11/01 09:03:29;;;;;;;10.70;6.40;;;22.00;69.70;;;;;;213376;1280;24321;-58
2022/11/01 09:08:52;;;;;;;11.00;6.70;;;22.00;69.60;;;;;;213259;1288;23898;-57
2022/11/01 09:14:00;;;;;;;10.20;7.40;;;22.10;69.20;;;;;;213384;1288;24927;-57
2022/11/01 09:19:03;;;;;;;16.20;7.40;;;22.10;69.20;;;;;;213522;1283;24801;-58
2022/11/01 09:24:07;;;;;;;11.40;6.80;;;22.20;69.00;;;;;;213588;1280;24104;-55
2022/11/01 09:29:10;;;;;;;14.60;6.60;;;22.20;68.90;;;;;;213599;1280;22471;-57
2022/11/01 09:34:14;;;;;;;14.30;7.10;;;22.20;69.00;;;;;;213515;1283;22481;-57
2022/11/01 09:39:21;;;;;;;11.50;6.70;;;22.30;68.80;;;;;;213620;1288;22726;-56
2022/11/01 09:44:36;;;;;;;17.00;9.30;;;22.40;69.50;;;;;;213390;1288;23849;-55
2022/11/01 09:49:46;;;;;;;12.70;9.30;;;22.50;69.80;;;;;;213533;1292;22547;-57
2022/11/01 09:54:50;;;;;;;16.70;9.70;;;22.60;69.50;;;;;;213610;1284;24212;-56
2022/11/01 10:00:05;;;;;;;11.10;8.60;;;22.70;69.00;;;;;;213581;1280;25502;-54
2022/11/01 10:05:42;;;;;;;15.90;8.60;;;22.70;68.70;;;;;;213456;1286;24008;-57
2022/11/01 10:11:28;;;;;;;10.60;8.50;;;22.70;68.30;;;;;;213649;1296;22992;-55
2022/11/01 10:17:14;;;;;;;16.30;8.90;;;22.70;68.50;;;;;;213567;1288;22480;-53
2022/11/01 10:22:39;;;;;;;16.80;8.20;;;22.70;68.10;;;;;;213395;1284;24309;-55
2022/11/01 10:28:18;;;;;;;14.20;7.60;;;22.80;67.90;;;;;;213381;1283;24650;-54
2022/11/01 10:33:30;;;;;;;18.40;8.30;;;22.80;67.50;;;;;;213367;1287;22604;-55
2022/11/01 10:39:04;;;;;;;11.20;7.80;;;22.80;67.50;;;;;;213425;1285;24376;-55
2022/11/01 10:45:00;;;;;;;11.50;7.90;;;22.70;67.60;;;;;;213462;1286;22615;-55
2022/11/01 10:50:21;;;;;;;12.80;7.90;;;22.70;67.60;;;;;;213673;1288;22482;-51
2022/11/01 10:55:37;;;;;;;19.00;8.00;;;22.80;67.70;;;;;;213506;1284;22529;-54
2022/11/01 11:00:41;;;;;;;14.00;7.70;;;22.80;67.80;;;;;;213630;1284;22972;-55
2022/11/01 11:05:50;;;;;;;15.60;7.80;;;22.80;67.30;;;;;;213767;1287;23884;-55
2022/11/01 11:10:58;;;;;;;12.00;7.70;;;22.70;67.50;;;;;;213752;1288;22606;-54
2022/11/01 11:16:04;;;;;;;16.70;7.20;;;22.70;67.70;;;;;;213725;1281;26879;-53
2022/11/01 11:21:18;;;;;;;16.20;7.10;;;22.80;67.80;;;;;;213711;1280;22487;-54
2022/11/01 11:26:37;;;;;;;10.60;7.30;;;22.80;68.00;;;;;;213275;1287;24305;-53
2022/11/01 11:31:44;;;;;;;14.10;7.40;;;22.80;67.50;;;;;;213492;1280;25363;-56
2022/11/01 11:36:50;;;;;;;11.40;7.00;;;22.80;67.50;;;;;;213373;1287;22473;-55
2022/11/01 11:42:09;;;;;;;11.70;6.20;;;22.90;68.00;;;;;;213497;1294;22496;-55
2022/11/01 11:47:21;;;;;;;14.70;7.50;;;22.90;66.90;;;;;;213568;1288;22524;-55
2022/11/01 11:52:31;;;;;;;11.70;6.70;;;22.90;67.30;;;;;;213254;1288;23980;-55
2022/11/01 11:57:50;;;;;;;11.00;6.50;;;22.90;67.20;;;;;;213273;1280;22851;-55
2022/11/01 12:02:54;;;;;;;15.50;6.20;;;22.90;67.20;;;;;;213408;1300;24307;-56
2022/11/01 12:08:02;;;;;;;16.10;6.90;;;23.00;67.00;;;;;;213678;1281;24706;-57
2022/11/01 12:13:26;;;;;;;17.20;7.10;;;22.90;66.80;;;;;;213569;1288;25359;-57
2022/11/01 12:18:29;;;;;;;15.00;6.80;;;22.90;67.00;;;;;;213531;1288;22531;-56
2022/11/01 12:23:40;;;;;;;11.30;6.30;;;22.90;66.60;;;;;;213485;1287;22484;-54
2022/11/01 12:28:50;;;;;;;14.20;6.10;;;22.80;66.40;;;;;;214527;1286;24661;-53
2022/11/01 12:34:25;;;;;;;10.20;5.80;;;22.90;66.10;;;;;;213583;1287;24293;-55
2022/11/01 12:40:12;;;;;;;8.40;6.00;;;22.80;66.00;;;;;;213764;1287;24200;-56
2022/11/01 12:45:28;;;;;;;8.80;6.10;;;22.80;65.90;;;;;;213654;1286;26160;-56
2022/11/01 12:50:57;;;;;;;8.90;5.90;;;22.90;65.90;;;;;;213572;1293;24296;-58
2022/11/01 12:56:01;;;;;;;7.70;5.50;;;22.90;65.70;;;;;;213476;1293;22631;-60
2022/11/01 13:01:25;;;;;;;7.70;5.70;;;22.90;65.30;;;;;;213659;1288;22672;-54
2022/11/01 13:07:31;;;;;;;8.50;5.40;;;22.90;65.20;;;;;;213625;1288;24890;-55
2022/11/01 13:12:38;;;;;;;11.40;6.20;;;22.90;65.40;;;;;;212859;1302;26212;-53
2022/11/01 13:18:02;;;;;;;8.10;5.50;;;22.90;65.40;;;;;;213702;1280;22593;-54
2022/11/01 13:23:41;;;;;;;9.00;5.20;;;22.90;65.30;;;;;;213593;1294;25260;-55
2022/11/01 13:28:47;;;;;;;8.10;5.50;;;22.90;65.40;;;;;;213600;1294;22569;-55
2022/11/01 13:34:10;;;;;;;9.20;5.70;;;22.80;65.70;;;;;;213586;1288;22526;-54
2022/11/01 13:39:36;;;;;;;7.60;5.40;;;22.80;65.60;;;;;;213562;1287;25198;-56
2022/11/01 13:45:31;;;;;;;6.70;5.00;;;22.70;65.40;;;;;;213565;1286;26660;-56
2022/11/01 13:50:47;;;;;;;7.20;5.00;;;22.70;65.40;;;;;;213367;1286;23858;-56
2022/11/01 13:56:01;;;;;;;6.50;5.00;;;22.70;65.30;;;;;;213395;1291;23062;-55
2022/11/01 14:01:29;;;;;;;7.20;4.60;;;22.70;65.40;;;;;;213327;1280;22489;-56
2022/11/01 14:06:35;;;;;;;7.80;5.20;;;22.70;65.70;;;;;;213563;1295;26504;-55
2022/11/01 14:12:09;;;;;;;8.10;5.40;;;22.70;65.30;;;;;;213599;1293;22567;-52
2022/11/01 14:17:20;;;;;;;9.70;5.30;;;22.70;65.30;;;;;;213612;1286;22720;-52
2022/11/01 14:22:27;;;;;;;9.00;4.50;;;22.70;65.40;;;;;;213331;1281;25346;-54
2022/11/01 14:27:36;;;;;;;10.00;5.00;;;22.70;67.00;;;;;;213454;1280;22676;-54
2022/11/01 14:32:43;;;;;;;11.10;4.70;;;22.70;67.70;;;;;;213516;1286;24410;-55
2022/11/01 14:37:54;;;;;;;8.90;4.80;;;22.80;68.40;;;;;;213547;1283;26528;-55
2022/11/01 14:43:14;;;;;;;10.00;4.80;;;22.80;68.60;;;;;;213802;1287;25330;-56
2022/11/01 14:48:26;;;;;;;13.10;5.20;;;22.80;68.30;;;;;;213529;1279;22612;-55
2022/11/01 14:53:34;;;;;;;7.20;4.60;;;22.80;68.70;;;;;;213343;1288;25100;-55
2022/11/01 14:58:44;;;;;;;11.40;5.30;;;22.70;68.60;;;;;;213255;1280;24348;-56
2022/11/01 15:04:13;;;;;;;10.10;5.60;;;22.70;67.90;;;;;;213424;1288;25524;-55
2022/11/01 15:10:26;;;;;;;12.70;6.80;;;22.70;67.60;;;;;;213297;1287;24100;-57
2022/11/01 15:15:44;;;;;;;11.70;6.90;;;22.60;66.50;;;;;;213088;1284;22607;-60
2022/11/01 15:21:28;;;;;;;11.70;6.70;;;22.60;66.10;;;;;;213457;1288;22489;-57
2022/11/01 15:26:35;;;;;;;14.80;6.60;;;22.60;65.70;;;;;;212434;1290;25508;-58
2022/11/01 15:31:51;;;;;;;13.40;6.50;;;22.60;65.30;;;;;;212622;1291;24399;-56
2022/11/01 15:36:57;;;;;;;11.00;6.00;;;22.60;65.20;;;;;;212844;1287;22553;-55
2022/11/01 15:42:14;;;;;;;10.20;5.60;;;22.50;65.30;;;;;;212811;1290;25249;-58
2022/11/01 15:47:24;;;;;;;12.10;6.20;;;22.50;65.30;;;;;;212812;1286;23079;-57
2022/11/01 15:52:31;;;;;;;9.30;5.40;;;22.50;65.80;;;;;;212797;1283;24250;-58
2022/11/01 15:58:19;;;;;;;12.80;5.90;;;22.60;66.10;;;;;;213387;1283;22525;-56
2022/11/01 16:03:28;;;;;;;11.00;5.40;;;22.50;65.70;;;;;;213170;1286;24254;-55
2022/11/01 16:09:14;;;;;;;9.70;6.10;;;22.50;65.90;;;;;;213281;1287;22605;-57
2022/11/01 16:14:29;;;;;;;15.90;6.50;;;22.50;66.00;;;;;;213419;1284;22615;-57
2022/11/01 16:19:47;;;;;;;;;;;22.50;66.10;;;;;;213448;1286;25292;-57
2022/11/01 16:25:05;;;;;;;21.90;13.00;;;22.60;66.20;;;;;;213444;1302;25030;-57
2022/11/01 16:30:50;;;;;;;20.00;11.80;;;22.50;66.20;;;;;;213486;1290;24248;-56
2022/11/01 16:36:03;;;;;;;18.90;12.40;;;22.60;66.50;;;;;;213540;1286;25446;-57
2022/11/01 16:41:24;;;;;;;20.70;12.00;;;22.60;66.90;;;;;;213451;1288;22539;-57
2022/11/01 16:46:34;;;;;;;18.10;11.50;;;22.60;67.30;;;;;;213526;1288;24261;-57
2022/11/01 16:51:38;;;;;;;21.00;11.80;;;22.60;67.30;;;;;;213736;1293;22476;-56
2022/11/01 16:56:50;;;;;;;19.00;10.60;;;22.60;67.90;;;;;;213547;1288;22862;-57
2022/11/01 17:01:57;;;;;;;17.40;10.00;;;22.60;67.70;;;;;;213634;1280;23089;-59
2022/11/01 17:07:02;;;;;;;17.40;11.10;;;22.60;68.10;;;;;;213561;1292;24419;-58
2022/11/01 17:12:07;;;;;;;16.30;9.90;;;22.70;69.60;;;;;;213416;1280;22486;-57
2022/11/01 17:17:28;;;;;;;18.90;10.40;;;22.70;70.90;;;;;;213377;1280;22616;-56
2022/11/01 17:23:02;;;;;;;14.60;9.10;;;22.70;69.90;;;;;;213250;1288;26770;-56
2022/11/01 17:28:43;;;;;;;17.90;9.50;;;22.70;69.70;;;;;;212733;1289;22629;-56
2022/11/01 17:34:34;;;;;;;14.50;8.70;;;22.70;69.20;;;;;;212989;1283;24357;-56
2022/11/01 17:40:41;;;;;;;14.70;8.80;;;22.70;68.90;;;;;;212736;1283;24298;-56
2022/11/01 17:46:03;;;;;;;15.40;8.20;;;22.70;69.40;;;;;;212978;1297;22487;-56
2022/11/01 17:51:08;;;;;;;14.80;7.60;;;22.70;69.70;;;;;;213103;1291;22491;-57
2022/11/01 17:56:13;;;;;;;14.20;8.00;;;22.70;69.40;;;;;;213179;1299;25487;-57
2022/11/01 18:01:19;;;;;;;14.80;8.60;;;22.70;68.90;;;;;;213558;1297;22481;-56
2022/11/01 18:06:23;;;;;;;12.30;7.70;;;22.70;68.40;;;;;;213384;1287;159504;-57
2022/11/01 18:11:40;;;;;;;14.40;8.30;;;22.70;68.80;;;;;;213522;1294;22491;-56
2022/11/01 18:17:05;;;;;;;13.60;8.40;;;22.60;68.80;;;;;;213371;1291;25577;-57
2022/11/01 18:22:34;;;;;;;16.30;8.40;;;22.60;68.90;;;;;;213353;1290;22708;-57
2022/11/01 18:27:38;;;;;;;11.60;7.10;;;22.60;68.80;;;;;;213479;1280;24238;-57
2022/11/01 18:33:17;;;;;;;12.80;7.20;;;22.60;68.80;;;;;;213509;1281;25495;-56
2022/11/01 18:38:42;;;;;;;12.70;8.00;;;22.50;68.60;;;;;;213204;1288;22676;-58
2022/11/01 18:44:02;;;;;;;12.40;7.20;;;22.60;68.70;;;;;;213582;1310;23918;-57
2022/11/01 18:49:11;;;;;;;9.30;7.50;;;22.50;68.40;;;;;;213315;1303;22493;-57
2022/11/01 18:54:25;;;;;;;11.20;7.30;;;22.50;68.40;;;;;;213321;1291;22865;-56
2022/11/01 18:59:49;;;;;;;11.80;7.10;;;22.50;68.70;;;;;;213563;1287;22712;-56
2022/11/01 19:05:20;;;;;;;11.20;7.60;;;22.50;68.30;;;;;;213451;1285;22741;-55
2022/11/01 19:10:28;;;;;;;9.80;6.30;;;22.50;67.90;;;;;;213451;1294;25098;-56
2022/11/01 19:15:38;;;;;;;9.00;6.40;;;22.50;68.30;;;;;;213330;1294;25132;-57
2022/11/01 19:21:16;;;;;;;10.50;6.50;;;22.50;68.30;;;;;;213291;1284;22603;-56
2022/11/01 19:26:39;;;;;;;11.60;6.80;;;22.50;69.00;;;;;;213346;1286;22651;-56
2022/11/01 19:31:50;;;;;;;7.80;6.00;;;22.50;68.30;;;;;;213360;1288;25289;-56
2022/11/01 19:37:33;;;;;;;;;;;22.50;68.20;;;;;;213302;1290;22720;-56
2022/11/01 19:42:46;;;;;;;10.30;6.90;;;22.50;68.30;;;;;;213319;1288;23964;-56
2022/11/01 19:47:57;;;;;;;11.80;7.30;;;22.50;68.80;;;;;;213474;1294;23862;-57
2022/11/01 19:53:36;;;;;;;14.00;6.70;;;22.50;68.80;;;;;;213330;1284;22709;-57
2022/11/01 19:59:14;;;;;;;15.10;8.00;;;22.50;68.40;;;;;;213207;1281;25287;-57
2022/11/01 20:04:28;;;;;;;14.90;7.30;;;22.60;68.60;;;;;;213215;1280;25376;-56
2022/11/01 20:09:41;;;;;;;9.90;6.90;;;22.60;68.60;;;;;;215066;1288;24367;-57
2022/11/01 20:14:47;;;;;;;17.80;7.30;;;22.50;68.60;;;;;;213278;1287;22474;-57
2022/11/01 20:19:52;;;;;;;19.00;7.20;;;22.50;69.20;;;;;;213353;1286;22502;-56
2022/11/01 20:25:00;;;;;;;11.00;6.80;;;22.50;69.10;;;;;;213328;1288;25229;-57
2022/11/01 20:30:15;;;;;;;16.50;7.10;;;22.50;68.80;;;;;;213492;1288;24366;-58
2022/11/01 20:35:24;;;;;;;10.70;6.70;;;22.50;69.00;;;;;;213559;1290;25289;-57
2022/11/01 20:40:29;;;;;;;11.30;6.30;;;22.50;69.20;;;;;;213539;1290;24222;-56
2022/11/01 20:45:36;;;;;;;11.50;6.90;;;22.40;69.00;;;;;;213430;1304;24221;-58
2022/11/01 20:50:40;;;;;;;15.30;6.60;;;22.40;69.10;;;;;;213436;1288;25710;-57
2022/11/01 20:55:57;;;;;;;10.10;6.90;;;22.40;68.90;;;;;;213526;1287;24221;-57
2022/11/01 21:01:16;;;;;;;10.90;7.40;;;22.40;68.90;;;;;;213489;1283;25421;-56
2022/11/01 21:06:25;;;;;;;12.90;7.30;;;22.40;68.80;;;;;;213569;1294;22731;-57
2022/11/01 21:11:56;;;;;;;14.10;7.30;;;22.50;68.30;;;;;;213590;1294;26576;-58
2022/11/01 21:17:14;;;;;;;14.10;7.40;;;22.50;68.80;;;;;;213235;1288;24352;-57
2022/11/01 21:22:23;;;;;;;15.40;7.00;;;22.50;68.80;;;;;;213390;1284;22590;-57
2022/11/01 21:27:36;;;;;;;11.50;6.80;;;22.50;69.40;;;;;;213295;1288;22694;-57
2022/11/01 21:32:43;;;;;;;13.40;7.40;;;22.50;68.80;;;;;;213263;1288;22590;-57
2022/11/01 21:37:52;;;;;;;13.90;7.40;;;22.50;69.20;;;;;;213486;1286;25328;-55
2022/11/01 21:42:56;;;;;;;19.90;8.00;;;22.50;71.20;;;;;;213312;1288;22832;-55
2022/11/01 21:48:20;;;;;;;13.50;7.70;;;22.40;70.90;;;;;;213438;1283;24281;-58
2022/11/01 21:53:34;;;;;;;13.70;7.60;;;22.40;70.60;;;;;;213365;1280;23893;-58
2022/11/01 21:58:50;;;;;;;16.40;6.90;;;22.40;70.80;;;;;;213111;1283;24245;-53
2022/11/01 22:04:03;;;;;;;16.90;7.60;;;22.40;71.00;;;;;;213172;1284;22055;-58
2022/11/01 22:09:07;;;;;;;13.80;7.70;;;22.40;71.40;;;;;;213437;1290;22930;-57
2022/11/01 22:14:11;;;;;;;14.10;7.60;;;22.40;71.60;;;;;;213463;1288;25465;-56
2022/11/01 22:19:16;;;;;;;10.60;7.00;;;22.40;74.70;;;;;;213461;1294;24261;-55
2022/11/01 22:24:33;;;;;;;12.80;7.50;;;22.50;73.60;;;;;;213389;1286;22464;-57
2022/11/01 22:29:37;;;;;;;13.50;6.60;;;22.40;73.30;;;;;;213286;1294;22464;-56
2022/11/01 22:34:44;;;;;;;12.40;6.00;;;22.40;73.60;;;;;;213139;1287;23865;-55
2022/11/01 22:39:49;;;;;;;15.30;6.60;;;22.40;73.90;;;;;;213089;1296;24046;-58
2022/11/01 22:44:56;;;;;;;13.10;7.00;;;22.30;73.90;;;;;;213428;1288;22521;-56
2022/11/01 22:50:03;;;;;;;13.60;7.00;;;22.30;74.40;;;;;;213584;1287;25210;-57
2022/11/01 22:55:16;;;;;;;12.00;6.40;;;22.30;74.10;;;;;;213212;1293;22486;-57
2022/11/01 23:00:39;;;;;;;10.30;6.70;;;22.30;73.90;;;;;;213143;1288;24246;-58
2022/11/01 23:06:03;;;;;;;10.90;6.60;;;22.30;74.00;;;;;;213313;1288;22470;-57
2022/11/01 23:16:48;;;;;;;10.40;7.20;;;22.30;74.30;;;;;;213387;1290;22474;-56
2022/11/01 23:21:59;;;;;;;10.60;6.60;;;22.30;74.10;;;;;;213196;1287;24314;-56
2022/11/01 23:27:06;;;;;;;10.30;6.10;;;22.30;74.00;;;;;;213292;1286;24333;-51
2022/11/01 23:32:12;;;;;;;9.60;6.30;;;22.30;73.80;;;;;;213317;1288;22540;-57
2022/11/01 23:37:26;;;;;;;9.10;6.10;;;22.30;73.50;;;;;;213403;1294;25433;-51
2022/11/01 23:42:40;;;;;;;9.50;6.70;;;22.30;73.90;;;;;;213392;1289;26584;-57
2022/11/01 23:47:45;;;;;;;15.40;7.20;;;22.30;73.90;;;;;;213299;1285;22751;-55
2022/11/01 23:52:54;;;;;;;11.40;7.00;;;22.20;73.80;;;;;;213412;1288;25393;-57
2022/11/01 23:58:01;;;;;;;13.90;6.10;;;22.30;73.90;;;;;;213430;1280;22718;-60
